Details From LJLJ - Ljubljana
To TNCM - St Maarten - Princess Juliana Intl
Flight Number -
Tags Decoded
Created
Modified
Stats Distance 4,140 nm / 7,667 km
Max Altitude 0 ft / 0 m
Waypoints 7
Social Downloads 1
Likes 0
Share VATSIM

Download

Looking for another format? Having issues loading an existing format? Contact us
Advertisement - Login to hide

Notes

Decoded

Route

LJLJ CALDO UXANA R2459 LPAZ PJD TNCM

ID Type Via Altitude Latitude Longitude Leg Dist Tot Dist Heading (true) Name
O LJLJ APT - 0 ft / 0 m 46.23249˚ 14.44039˚ - 0 nm - -
CALDO FIX - 0 ft / 0 m 45.90888˚ 8.86305˚ 233 nm 233 nm 267° / 263° -
UXANA FIX - 0 ft / 0 m 45.27639˚ 3.17917˚ 241 nm 474 nm 263° / 259° -
R2459 FIX - 0 ft / 0 m 36.98500˚ -25.17333˚ 1367 nm 1841 nm 259° / 240° -
LPAZ APT - 0 ft / 0 m 36.97389˚ -25.17583˚ 0 nm 1842 nm 190° / 190° -
PJD NDB - 0 ft / 0 m 18.03833˚ -63.11833˚ 2297 nm 4139 nm 251° / 233° ST MAARTEN NDB
O TNCM APT - 0 ft / 0 m 18.03937˚ -63.11961˚ 0 nm 4139 nm 310° / 310° -

Altitude Profile

Advertisement - Login to hide

Weather


0- 5 10 15 20 25 30 35+ Temperature / ° C

Clouds and Precipitation
Forecast for 2018-05-27 18:00 UTC. Updated 4 hours ago

Ground ~20,000 ft ~40,000 ft Winds

LJLJ

Details ICAO LJLJ (LJU)
Name LJUBLJANA
Region Slovenia
Timezone Europe/Ljubljana (UTC+2.0)
Stats Elevation 1,273 ft / 388 m (AMSL)
Location 46.223685° 14.457608°
Runways 1
Magnetic Variation 3.713° E

METAR

LJLJ 272130Z 00000KT 9999 MIFG FEW040 BKN240 14/14 Q1021 NOSIG

Decode

TAF

TAF LJLJ 272000Z 2721/2821 30003KT 9999 FEW040 SCT110 BKN230 PROB30 TEMPO 2722/2811 VRB15KT 5000 TSRA BKN035CB BECMG 2808/2810 13005KT TEMPO 2811/2821 SHRA SCT040TCU BKN055 PROB40 TEMPO 2811/2820 VRB15KT 5000 TSRA BKN035CB

Decode

Departure Runways

ID Width Length Bearing (true) Bearing (mag) Surface Threshold Offset Overrun Length
13 148 ft / 45 m 10,811 ft / 3,295 m 126.47° 122.76° Asphalt 0 ft / 0 m 0 ft / 0 m
31 148 ft / 45 m 10,811 ft / 3,295 m 306.49° 302.78° Asphalt 0 ft / 0 m 0 ft / 0 m

TNCM

Details ICAO TNCM (SXM)
Name St Maarten - Princess Juliana Intl
Region Caribbean Netherlands, Aruba, Curaçao, Sint Maarten
Timezone Unknown (UTC+0.0)
Stats Elevation 12 ft / 4 m (AMSL)
Location 18.040889° -63.108974°
Runways 1
Magnetic Variation 14.337° W

METAR

TNCM 272100Z 11008KT 060V150 9999 FEW009 28/23 Q1017 NOSIG RMK A3003

Decode

TAF

TAF TNCM 271741Z 2718/2818 12013KT P6SM VCTS SCT018CB BKN030 TEMPO 2718/2720 5SM TSRA BKN018CB FM272200 09010KT P6SM VCTS SCT018CB SCT040

Decode

Destination Runways

ID Width Length Bearing (true) Bearing (mag) Surface Threshold Offset Overrun Length
10 148 ft / 45 m 7,464 ft / 2,275 m 81.43° 95.77° Asphalt 0 ft / 0 m 151 ft / 46 m
28 148 ft / 45 m 7,464 ft / 2,275 m 261.44° 275.78° Asphalt 397 ft / 121 m 0 ft / 0 m